createdAt,value
2023-05-10T03:29:09.791Z,36.52
2023-05-10T03:31:36.300Z,36.72
2023-05-10T03:34:02.903Z,30.13
2023-05-10T03:36:29.324Z,27.51
2023-05-10T03:38:55.876Z,27.04
2023-05-10T03:41:22.492Z,25.88
2023-05-10T03:43:49.068Z,22.88
2023-05-10T03:46:15.568Z,24.00
2023-05-10T03:48:42.009Z,23.23
2023-05-10T03:51:09.119Z,21.56
2023-05-10T03:53:35.832Z,23.22
2023-05-10T03:56:02.279Z,24.18
2023-05-10T03:58:28.814Z,21.58
2023-05-10T04:00:55.278Z,20.75
2023-05-10T04:03:21.928Z,19.08
2023-05-10T04:05:48.471Z,17.86
2023-05-10T04:08:14.933Z,14.81
2023-05-10T04:10:41.412Z,13.37
2023-05-10T04:13:07.989Z,11.38
2023-05-10T04:15:34.521Z,9.48
2023-05-10T04:18:01.050Z,8.61
2023-05-10T04:20:27.529Z,9.44
2023-05-10T04:22:54.026Z,14.37
2023-05-10T04:25:20.486Z,16.53
2023-05-10T04:27:46.923Z,15.05
2023-05-10T04:30:13.380Z,17.22
2023-05-10T04:32:39.915Z,15.65
2023-05-10T04:35:06.443Z,17.30
2023-05-10T04:37:32.879Z,18.26
2023-05-10T04:39:59.271Z,16.63
2023-05-10T04:42:25.924Z,16.45
2023-05-10T04:44:52.326Z,17.30
2023-05-10T04:47:18.798Z,18.48
2023-05-10T04:49:45.208Z,16.26
2023-05-10T04:52:11.652Z,14.24
2023-05-10T04:54:38.050Z,12.14
2023-05-10T04:57:06.467Z,12.66
2023-05-10T04:59:32.922Z,13.33
2023-05-10T05:01:59.472Z,13.08
2023-05-10T05:04:25.999Z,13.68
2023-05-10T05:06:54.029Z,15.01
2023-05-10T05:09:20.707Z,13.22
2023-05-10T05:11:47.216Z,10.82
2023-05-10T05:14:13.709Z,11.75
2023-05-10T05:16:40.333Z,11.03
2023-05-10T05:19:06.963Z,10.06
2023-05-10T05:21:33.460Z,12.19
2023-05-10T05:23:59.973Z,11.53
2023-05-10T05:26:26.580Z,10.02
2023-05-10T05:28:53.095Z,10.71
2023-05-10T05:31:19.630Z,11.85
2023-05-10T05:33:46.107Z,13.61
2023-05-10T05:36:12.574Z,11.28
2023-05-10T05:38:39.085Z,11.43
2023-05-10T05:41:05.597Z,13.80
2023-05-10T05:43:32.045Z,12.15
2023-05-10T05:45:58.664Z,12.53
2023-05-10T05:48:25.298Z,12.19
2023-05-10T05:50:51.726Z,13.36
2023-05-10T05:53:18.196Z,11.86
2023-05-10T05:55:44.637Z,12.69
2023-05-10T05:58:11.164Z,12.52
2023-05-10T06:00:37.743Z,11.61
2023-05-10T06:03:04.357Z,11.55
2023-05-10T06:05:30.993Z,12.54
2023-05-10T06:07:57.493Z,11.77
2023-05-10T06:10:23.914Z,12.87
2023-05-10T06:12:50.412Z,11.14
2023-05-10T06:15:16.971Z,11.05
2023-05-10T06:17:43.508Z,12.28
2023-05-10T06:20:10.040Z,12.03
2023-05-10T06:22:36.454Z,11.49
2023-05-10T06:25:02.982Z,11.10
2023-05-10T06:27:29.481Z,11.88
2023-05-10T06:30:02.198Z,9.88
2023-05-10T06:32:36.048Z,11.27
2023-05-10T06:35:02.585Z,10.33
2023-05-10T06:37:29.069Z,13.85
2023-05-10T06:39:55.601Z,13.38
2023-05-10T06:42:22.057Z,14.64
2023-05-10T06:44:48.565Z,14.06
2023-05-10T06:47:15.163Z,13.52
2023-05-10T06:49:41.700Z,16.76
2023-05-10T06:52:08.183Z,16.68
2023-05-10T06:54:34.871Z,16.00
2023-05-10T06:57:03.103Z,15.70
2023-05-10T06:59:30.505Z,17.51
2023-05-10T07:01:56.999Z,17.45
2023-05-10T07:04:23.537Z,16.89
2023-05-10T07:06:49.988Z,16.92
2023-05-10T07:09:16.513Z,17.40
2023-05-10T07:11:43.048Z,15.17
2023-05-10T07:14:09.929Z,15.25
2023-05-10T07:16:36.517Z,15.01
2023-05-10T07:19:03.197Z,13.88
2023-05-10T07:21:29.792Z,14.17
2023-05-10T07:23:56.433Z,14.61
2023-05-10T07:26:22.955Z,14.05
2023-05-10T07:28:49.492Z,13.18
2023-05-10T07:31:16.204Z,12.06
2023-05-10T07:33:42.640Z,14.30
2023-05-10T07:36:09.129Z,15.10
2023-05-10T07:38:35.765Z,13.13
2023-05-10T07:41:02.225Z,13.58
2023-05-10T07:43:28.658Z,15.24
2023-05-10T07:45:56.424Z,12.54
2023-05-10T07:48:23.019Z,13.22
2023-05-10T07:50:49.670Z,12.78
2023-05-10T07:53:16.342Z,13.87
2023-05-10T07:55:42.759Z,12.56
2023-05-10T07:58:09.191Z,10.38
2023-05-10T08:00:35.688Z,11.02
2023-05-10T08:03:02.447Z,10.73
2023-05-10T08:05:29.030Z,11.09
2023-05-10T08:07:55.616Z,10.24
2023-05-10T08:10:22.201Z,11.42
2023-05-10T08:12:48.673Z,11.04
2023-05-10T08:15:15.286Z,10.95
2023-05-10T08:17:42.109Z,11.48
2023-05-10T08:20:08.615Z,10.47
2023-05-10T08:22:35.047Z,10.11
2023-05-10T08:25:01.532Z,10.21
2023-05-10T08:27:27.980Z,11.41
2023-05-10T08:29:54.383Z,10.36
2023-05-10T08:32:20.824Z,9.81
2023-05-10T08:34:47.278Z,9.08
2023-05-10T08:37:15.989Z,9.13
2023-05-10T08:39:42.467Z,9.82
2023-05-10T08:42:09.381Z,8.35
2023-05-10T08:44:36.020Z,9.40
2023-05-10T08:47:02.545Z,9.93
2023-05-10T08:49:29.118Z,8.60
2023-05-10T08:51:55.678Z,8.77
2023-05-10T08:54:22.274Z,8.61
2023-05-10T08:56:49.683Z,8.90
2023-05-10T08:59:16.448Z,9.44
2023-05-10T09:01:42.959Z,8.69
2023-05-10T09:04:09.485Z,7.46
2023-05-10T09:06:36.024Z,8.40
2023-05-10T09:09:02.480Z,8.64
2023-05-10T09:11:28.915Z,8.46
2023-05-10T09:13:55.408Z,8.55
2023-05-10T09:16:22.593Z,8.05
2023-05-10T09:18:49.257Z,8.37
2023-05-10T09:21:15.757Z,11.05
2023-05-10T09:23:42.284Z,8.24
2023-05-10T09:26:08.866Z,11.12
2023-05-10T09:28:35.365Z,11.61
2023-05-10T09:31:01.813Z,14.69
2023-05-10T09:33:28.326Z,21.39
2023-05-10T09:35:54.798Z,21.76
2023-05-10T09:38:21.318Z,26.87
2023-05-10T09:40:47.758Z,22.74
2023-05-10T09:43:14.185Z,23.07
2023-05-10T09:45:40.761Z,19.60
2023-05-10T09:48:07.534Z,19.25
2023-05-10T09:50:34.257Z,16.79
2023-05-10T09:53:00.782Z,17.57
2023-05-10T09:55:27.277Z,15.64
2023-05-10T09:57:53.716Z,18.38
2023-05-10T10:00:20.231Z,18.04
2023-05-10T10:02:46.783Z,16.89
2023-05-10T10:05:13.364Z,16.99
2023-05-10T10:07:39.837Z,17.24
2023-05-10T10:10:06.264Z,15.12
2023-05-10T10:12:32.745Z,15.43
2023-05-10T10:14:59.186Z,14.46
2023-05-10T10:17:25.614Z,15.72
2023-05-10T10:19:52.504Z,15.76
2023-05-10T10:22:19.132Z,15.78
2023-05-10T10:24:45.662Z,14.64
2023-05-10T10:27:12.134Z,14.14
2023-05-10T10:29:38.566Z,14.98
2023-05-10T10:32:04.985Z,14.27
2023-05-10T10:34:31.423Z,14.08
2023-05-10T10:36:57.860Z,13.08
2023-05-10T10:39:24.381Z,14.56
2023-05-10T10:41:50.863Z,14.03
2023-05-10T10:44:17.358Z,14.30
2023-05-10T10:46:43.862Z,12.58
2023-05-10T10:49:10.361Z,13.57
2023-05-10T10:51:36.832Z,13.33
2023-05-10T10:54:03.348Z,15.43
2023-05-10T10:56:29.867Z,14.59
2023-05-10T10:58:56.292Z,14.79
2023-05-10T11:01:22.740Z,13.84
2023-05-10T11:03:49.306Z,14.60
2023-05-10T11:06:15.791Z,13.99
2023-05-10T11:08:42.303Z,13.50
2023-05-10T11:11:08.807Z,12.06
2023-05-10T11:13:35.281Z,13.43
2023-05-10T11:16:01.805Z,12.63
2023-05-10T11:18:28.409Z,13.24
2023-05-10T11:20:54.946Z,11.71
2023-05-10T11:23:21.362Z,12.43
2023-05-10T11:25:47.929Z,13.33
2023-05-10T11:28:14.492Z,12.42
2023-05-10T11:30:41.019Z,13.00
2023-05-10T11:33:07.579Z,13.30
2023-05-10T11:35:34.122Z,13.13
2023-05-10T11:38:00.575Z,13.65
2023-05-10T11:40:27.052Z,12.56
2023-05-10T11:42:53.479Z,11.48
2023-05-10T11:45:20.008Z,12.31
2023-05-10T11:47:46.590Z,11.96
2023-05-10T11:50:13.055Z,12.26
2023-05-10T11:52:39.575Z,12.88
2023-05-10T11:55:06.065Z,14.15
2023-05-10T11:57:32.552Z,12.80
2023-05-10T11:59:59.049Z,12.38
2023-05-10T12:02:25.717Z,13.09
2023-05-10T12:04:52.363Z,12.01
2023-05-10T12:07:18.952Z,11.62
2023-05-10T12:09:45.422Z,11.16
2023-05-10T12:12:11.860Z,11.70
2023-05-10T12:14:38.288Z,14.21
2023-05-10T12:17:04.722Z,13.68
2023-05-10T12:19:31.245Z,12.32
2023-05-10T12:21:57.679Z,13.96
2023-05-10T12:24:24.141Z,13.76
2023-05-10T12:26:50.574Z,11.57
2023-05-10T12:29:17.005Z,12.96
2023-05-10T12:31:43.495Z,12.53
2023-05-10T12:34:09.933Z,12.58
2023-05-10T12:36:36.415Z,13.26
2023-05-10T12:39:02.824Z,12.51
2023-05-10T12:41:29.236Z,13.39
2023-05-10T12:43:55.694Z,11.94
2023-05-10T12:46:22.124Z,12.48
2023-05-10T12:48:48.595Z,13.03
2023-05-10T12:51:15.069Z,13.26
2023-05-10T12:53:43.684Z,12.10
2023-05-10T12:56:11.607Z,10.76
2023-05-10T12:58:38.054Z,11.78
2023-05-10T13:01:04.628Z,11.35
2023-05-10T13:03:31.080Z,11.61
2023-05-10T13:05:57.676Z,11.09
2023-05-10T13:08:24.099Z,10.60
2023-05-10T13:10:50.608Z,12.40
2023-05-10T13:13:17.073Z,12.18
2023-05-10T13:15:43.692Z,11.91
2023-05-10T13:18:10.206Z,12.58
2023-05-10T13:20:36.696Z,11.81
2023-05-10T13:23:03.114Z,11.72
2023-05-10T13:25:29.584Z,11.09
2023-05-10T13:27:56.039Z,11.81
2023-05-10T13:30:22.458Z,10.84
2023-05-10T13:32:48.892Z,12.21
2023-05-10T13:35:15.376Z,12.66
2023-05-10T13:37:41.820Z,9.81
2023-05-10T13:40:08.318Z,10.20
2023-05-10T13:42:34.895Z,11.59
2023-05-10T13:45:04.093Z,10.16
2023-05-10T13:47:30.623Z,10.43
2023-05-10T13:49:57.073Z,9.94
2023-05-10T13:52:23.513Z,9.07
2023-05-10T13:54:50.017Z,10.24
2023-05-10T13:57:16.475Z,9.84
2023-05-10T13:59:42.949Z,9.93
2023-05-10T14:02:09.449Z,10.32
2023-05-10T14:04:35.942Z,10.13
2023-05-10T14:07:02.355Z,11.03
2023-05-10T14:09:28.789Z,10.54
2023-05-10T14:11:55.264Z,10.38
2023-05-10T14:14:21.693Z,9.37
2023-05-10T14:16:48.182Z,9.17
2023-05-10T14:19:14.713Z,8.72
2023-05-10T14:21:41.176Z,8.92
2023-05-10T14:24:07.645Z,8.08
2023-05-10T14:26:34.103Z,9.44
2023-05-10T14:29:00.550Z,7.69
2023-05-10T14:31:27.104Z,9.50
2023-05-10T14:33:53.621Z,9.53
2023-05-10T14:36:20.029Z,9.59
2023-05-10T14:38:46.434Z,8.84
2023-05-10T14:41:12.877Z,8.42
2023-05-10T14:43:39.332Z,9.48
2023-05-10T14:46:05.794Z,9.13
2023-05-10T14:48:32.260Z,7.37
2023-05-10T14:50:58.697Z,7.46
2023-05-10T14:53:25.135Z,7.62
2023-05-10T14:55:51.605Z,7.28
2023-05-10T14:58:18.034Z,8.83
2023-05-10T15:00:44.463Z,8.64
2023-05-10T15:03:11.736Z,7.91
2023-05-10T15:05:38.529Z,6.82
2023-05-10T15:08:04.982Z,7.75
2023-05-10T15:10:33.780Z,8.74
2023-05-10T15:13:00.846Z,7.07
2023-05-10T15:15:27.361Z,6.83
2023-05-10T15:17:53.880Z,6.21
2023-05-10T15:20:20.395Z,6.77
2023-05-10T15:22:46.823Z,7.39
2023-05-10T15:25:13.413Z,6.94
2023-05-10T15:27:39.916Z,7.41
2023-05-10T15:30:06.369Z,7.35
2023-05-10T15:32:32.823Z,7.72
2023-05-10T15:34:59.356Z,7.36
2023-05-10T15:37:25.818Z,6.45
2023-05-10T15:39:52.253Z,6.23
2023-05-10T15:42:18.753Z,6.65
2023-05-10T15:44:45.201Z,7.08
2023-05-10T15:47:11.800Z,8.07
2023-05-10T15:49:38.251Z,7.60
2023-05-10T15:52:04.785Z,7.57
2023-05-10T15:54:31.257Z,6.25
2023-05-10T15:56:57.755Z,7.70
2023-05-10T15:59:24.228Z,7.38
2023-05-10T16:01:50.744Z,26.14
2023-05-10T16:04:17.245Z,75.31
2023-05-10T16:06:43.724Z,119.29
2023-05-10T16:09:10.246Z,113.79
2023-05-10T16:11:36.792Z,95.64
2023-05-10T16:14:03.285Z,92.21
2023-05-10T16:16:29.845Z,90.60
2023-05-10T16:18:56.807Z,87.34
2023-05-10T16:21:23.459Z,72.90
2023-05-10T16:23:49.990Z,70.05
2023-05-10T16:26:16.501Z,70.98
2023-05-10T16:28:42.926Z,66.96
2023-05-10T16:31:09.595Z,60.70
2023-05-10T16:33:36.125Z,59.89
2023-05-10T16:36:02.660Z,60.90
2023-05-10T16:38:29.226Z,62.29
2023-05-10T16:40:55.705Z,59.58
2023-05-10T16:43:23.993Z,57.18
2023-05-10T16:45:51.852Z,55.37
2023-05-10T16:48:18.449Z,47.83
2023-05-10T16:50:45.010Z,50.84
2023-05-10T16:53:14.249Z,52.92
2023-05-10T16:55:40.910Z,52.28
2023-05-10T16:58:07.471Z,50.88
2023-05-10T17:00:34.234Z,51.18
2023-05-10T17:03:00.827Z,48.89
2023-05-10T17:05:27.300Z,47.16
2023-05-10T17:07:53.794Z,47.48
2023-05-10T17:10:20.401Z,45.68
2023-05-10T17:12:46.984Z,44.97
2023-05-10T17:15:13.584Z,44.50
2023-05-10T17:17:40.127Z,44.52
2023-05-10T17:20:06.718Z,44.47
2023-05-10T17:22:33.278Z,41.07
2023-05-10T17:24:59.926Z,41.96
2023-05-10T17:27:26.460Z,43.93
2023-05-10T17:29:52.955Z,42.18
2023-05-10T17:32:19.473Z,43.58
2023-05-10T17:34:46.001Z,43.19
2023-05-10T17:37:12.579Z,40.45
2023-05-10T17:39:40.012Z,40.04
2023-05-10T17:42:06.597Z,40.76
2023-05-10T17:44:33.115Z,39.50
2023-05-10T17:46:59.672Z,38.16
2023-05-10T17:49:26.226Z,41.97
2023-05-10T17:51:52.775Z,38.54
2023-05-10T17:54:19.377Z,39.03
2023-05-10T17:56:45.784Z,36.46
2023-05-10T17:59:12.350Z,35.00
2023-05-10T18:01:38.968Z,36.83
2023-05-10T18:04:05.425Z,36.42
2023-05-10T18:06:31.919Z,33.54
2023-05-10T18:08:58.469Z,34.71
2023-05-10T18:11:25.015Z,34.08
2023-05-10T18:13:51.648Z,35.64
2023-05-10T18:16:18.169Z,32.92
2023-05-10T18:18:44.818Z,32.89
2023-05-10T18:21:11.425Z,31.15
2023-05-10T18:23:37.929Z,33.16
2023-05-10T18:26:04.429Z,32.55
2023-05-10T18:28:31.030Z,31.35
2023-05-10T18:30:57.587Z,32.04
2023-05-10T18:33:24.197Z,29.75
2023-05-10T18:35:50.795Z,30.35
2023-05-10T18:38:17.302Z,31.13
2023-05-10T18:40:43.845Z,28.03
2023-05-10T18:43:10.341Z,28.47
2023-05-10T18:45:36.815Z,28.68
2023-05-10T18:48:03.325Z,27.90
2023-05-10T18:50:30.006Z,24.21
2023-05-10T18:52:56.455Z,22.68
2023-05-10T18:55:23.058Z,20.45
2023-05-10T18:57:49.622Z,24.06
2023-05-10T19:00:16.161Z,22.78
2023-05-10T19:02:42.817Z,21.79
2023-05-10T19:05:09.442Z,25.85
2023-05-10T19:07:35.922Z,24.97
2023-05-10T19:10:02.562Z,22.61
2023-05-10T19:12:29.284Z,21.60
2023-05-10T19:14:55.764Z,17.78
2023-05-10T19:17:22.291Z,18.59
2023-05-10T19:19:50.217Z,17.89
2023-05-10T19:22:16.826Z,20.41
2023-05-10T19:24:45.021Z,19.04
2023-05-10T19:27:11.554Z,20.29
2023-05-10T19:29:38.122Z,18.07
2023-05-10T19:32:04.678Z,17.22
2023-05-10T19:34:31.180Z,16.36
2023-05-10T19:36:58.138Z,17.37
2023-05-10T19:39:25.160Z,15.98
2023-05-10T19:41:51.895Z,16.86
2023-05-10T19:44:18.430Z,16.58
2023-05-10T19:46:44.948Z,16.82
2023-05-10T19:49:11.380Z,15.57
2023-05-10T19:51:37.875Z,15.25
2023-05-10T19:54:04.362Z,15.13
2023-05-10T19:56:30.846Z,16.46
2023-05-10T19:58:57.287Z,13.77
2023-05-10T20:01:23.728Z,15.51
2023-05-10T20:03:50.382Z,15.40
2023-05-10T20:06:16.864Z,15.94
2023-05-10T20:08:43.344Z,15.92
2023-05-10T20:11:09.774Z,16.94
2023-05-10T20:13:36.315Z,16.36
2023-05-10T20:16:02.853Z,15.47
2023-05-10T20:18:29.334Z,16.05
2023-05-10T20:20:55.835Z,14.06
2023-05-10T20:23:22.433Z,14.87
2023-05-10T20:25:48.921Z,15.68
2023-05-10T20:28:18.211Z,14.26
2023-05-10T20:30:44.859Z,13.39
2023-05-10T20:33:11.418Z,15.97
2023-05-10T20:35:37.938Z,15.17
2023-05-10T20:38:04.471Z,14.89
2023-05-10T20:40:31.045Z,13.98
2023-05-10T20:42:57.575Z,14.72
2023-05-10T20:45:24.203Z,13.88
2023-05-10T20:47:50.832Z,13.86
2023-05-10T20:50:17.795Z,14.08
2023-05-10T20:52:44.452Z,13.61
2023-05-10T20:55:10.940Z,13.99
2023-05-10T20:57:37.479Z,14.35
2023-05-10T21:00:03.986Z,14.99
2023-05-10T21:02:30.509Z,13.36
2023-05-10T21:04:58.162Z,12.81
2023-05-10T21:07:24.823Z,13.87
2023-05-10T21:09:51.360Z,15.09
2023-05-10T21:12:17.891Z,14.49
2023-05-10T21:14:44.391Z,13.69
2023-05-10T21:17:10.907Z,13.06
2023-05-10T21:19:37.459Z,13.52
2023-05-10T21:22:04.054Z,12.87
2023-05-10T21:24:30.620Z,13.74
2023-05-10T21:26:57.089Z,13.52
2023-05-10T21:29:23.680Z,12.55
2023-05-10T21:31:50.270Z,12.95
2023-05-10T21:34:16.782Z,13.42
2023-05-10T21:36:43.271Z,13.56
2023-05-10T21:39:09.762Z,12.97
2023-05-10T21:41:36.336Z,12.78
2023-05-10T21:44:02.844Z,11.79
2023-05-10T21:46:29.393Z,14.30
2023-05-10T21:48:55.982Z,12.93
2023-05-10T21:51:22.534Z,13.59
2023-05-10T21:53:49.090Z,13.45
2023-05-10T21:56:15.632Z,13.25
2023-05-10T21:58:42.200Z,13.89
2023-05-10T22:01:08.799Z,12.26
2023-05-10T22:03:35.404Z,13.52
2023-05-10T22:06:02.003Z,12.44
2023-05-10T22:08:28.563Z,11.54
2023-05-10T22:10:55.113Z,11.18
2023-05-10T22:13:21.612Z,12.63
2023-05-10T22:15:48.097Z,12.11
2023-05-10T22:18:14.633Z,12.42
2023-05-10T22:20:41.220Z,11.77
2023-05-10T22:23:07.747Z,12.18
2023-05-10T22:25:34.307Z,11.35
2023-05-10T22:28:00.859Z,13.06
2023-05-10T22:30:27.400Z,13.71
2023-05-10T22:32:53.978Z,12.42
2023-05-10T22:35:20.525Z,12.38
2023-05-10T22:37:47.001Z,12.36
2023-05-10T22:40:13.424Z,13.15
2023-05-10T22:42:39.958Z,12.26
2023-05-10T22:45:06.577Z,10.88
2023-05-10T22:47:33.144Z,10.96
2023-05-10T22:49:59.650Z,10.94
2023-05-10T22:52:26.154Z,12.76
2023-05-10T22:54:52.622Z,10.36
2023-05-10T22:57:19.182Z,11.78
